Time;durP1;ratioP1;P1;durP2;ratioP2;P2;SDS_P1;SDS_P2;PMS_P1;PMS_P2;Temp;Humidity;BMP_temperature;BMP_pressure;BME280_temperature;BME280_humidity;BME280_pressure;Samples;Min_cycle;Max_cycle;Signal;HPM_P1;HPM_P2
2023/07/14 00:00:21;;;;;;;12.15;6.80;;;;;;;14.74;100.00;101640.38;1038287;28;20049;-41
2023/07/14 00:01:24;;;;;;;7.18;6.10;;;;;;;14.88;100.00;101643.72;1038628;28;20053;-41
2023/07/14 00:02:26;;;;;;;8.43;7.25;;;;;;;14.87;100.00;101642.91;1029286;28;20049;-41
2023/07/14 00:03:21;;;;;;;8.40;6.20;;;;;;;14.84;100.00;101643.34;1031466;28;20065;-42
2023/07/14 00:04:31;;;;;;;10.63;6.70;;;;;;;14.72;100.00;101643.28;1040003;28;20579;-41
2023/07/14 00:05:04;;;;;;;12.50;8.15;;;;;;;14.79;100.00;101640.50;1043917;28;20131;-41
2023/07/14 00:05:38;;;;;;;11.70;7.45;;;;;;;14.79;100.00;101640.50;1045537;28;20155;-41
2023/07/14 00:06:13;;;;;;;8.75;7.75;;;;;;;14.91;100.00;101635.22;1043501;28;20049;-41
2023/07/14 00:06:45;;;;;;;7.80;7.00;;;;;;;14.93;100.00;101647.38;1039826;28;20041;-41
2023/07/14 00:07:18;;;;;;;9.40;7.30;;;;;;;14.93;100.00;101647.38;1039152;28;20081;-41
2023/07/14 00:08:30;;;;;;;8.85;6.80;;;;;;;14.89;100.00;101648.88;1042290;28;20132;-47
2023/07/14 00:09:31;;;;;;;11.05;7.05;;;;;;;14.76;100.00;101643.63;1041109;28;20049;-41
2023/07/14 00:11:03;;;;;;;8.52;7.60;;;;;;;14.53;100.00;101637.09;1037371;28;20038;-44
2023/07/14 00:11:56;;;;;;;8.32;7.43;;;;;;;14.65;100.00;101641.72;1038045;28;20042;-47
2023/07/14 00:12:47;;;;;;;8.02;7.18;;;;;;;14.48;100.00;101639.63;1042559;28;20045;-44
2023/07/14 00:14:09;;;;;;;12.77;6.88;;;;;;;14.52;100.00;101634.66;1041505;28;20109;-41
2023/07/14 00:16:41;;;;;;;10.70;6.65;;;;;;;14.84;100.00;101635.31;1044832;28;20513;-42
2023/07/14 00:17:22;;;;;;;14.02;6.55;;;;;;;14.90;100.00;101639.78;1045881;28;20049;-48
2023/07/14 00:18:34;;;;;;;;;;;;;;;;;;;;;
2023/07/14 00:19:36;;;;;;;8.13;6.30;;;;;;;14.78;100.00;101634.31;1038132;28;20068;-45
2023/07/14 00:20:39;;;;;;;8.93;6.43;;;;;;;14.89;100.00;101624.72;1041717;28;20057;-42
2023/07/14 00:21:33;;;;;;;7.85;7.05;;;;;;;14.75;100.00;101639.31;1036263;28;20120;-41
2023/07/14 00:22:24;;;;;;;7.20;6.28;;;;;;;14.58;100.00;101632.94;1039511;28;20057;-41
2023/07/14 00:23:57;;;;;;;7.82;6.32;;;;;;;14.69;100.00;101624.94;1038683;28;20050;-42
2023/07/14 00:24:59;;;;;;;7.60;6.88;;;;;;;14.68;100.00;101622.50;1040093;28;20109;-51
2023/07/14 00:26:05;;;;;;;9.30;7.55;;;;;;;14.85;100.00;101634.28;1043536;28;20045;-48
2023/07/14 00:27:00;;;;;;;13.82;8.25;;;;;;;14.81;100.00;101623.16;1026486;28;20059;-50
2023/07/14 00:27:32;;;;;;;8.50;7.57;;;;;;;14.73;100.00;101623.47;1036751;28;20053;-50
2023/07/14 00:28:05;;;;;;;9.35;7.38;;;;;;;14.69;100.00;101626.81;1035397;28;20128;-48
2023/07/14 00:29:28;;;;;;;9.43;7.95;;;;;;;14.55;100.00;101628.03;1040171;28;20400;-42
2023/07/14 00:31:02;;;;;;;12.65;8.20;;;;;;;14.78;100.00;101625.47;1030449;28;20470;-42
2023/07/14 00:31:57;;;;;;;10.10;7.85;;;;;;;14.62;100.00;101618.03;1040472;28;20052;-47
2023/07/14 00:33:08;;;;;;;;;;;;;;;;;;;;;
2023/07/14 00:33:56;;;;;;;10.00;7.80;;;;;;;14.42;100.00;101621.72;1035845;28;20047;-41
2023/07/14 00:34:29;;;;;;;10.63;8.23;;;;;;;14.41;100.00;101627.28;1042157;28;20046;-41
2023/07/14 00:35:47;;;;;;;12.35;8.57;;;;;;;14.25;100.00;101612.63;1046719;28;20171;-47
2023/07/14 00:36:41;;;;;;;11.73;7.72;;;;;;;14.22;100.00;101613.03;1036878;28;20039;-45
2023/07/14 00:37:49;;;;;;;9.98;8.77;;;;;;;14.19;100.00;101618.84;1041017;28;20426;-50
2023/07/14 00:38:51;;;;;;;11.80;7.53;;;;;;;14.16;100.00;101619.28;1033379;28;20046;-42
2023/07/14 00:39:49;;;;;;;12.52;8.32;;;;;;;14.21;100.00;101612.22;1042379;28;20071;-41
2023/07/14 00:41:18;;;;;;;10.90;7.38;;;;;;;14.27;100.00;101615.91;1039058;28;20061;-48
2023/07/14 00:42:32;;;;;;;10.10;8.20;;;;;;;14.41;100.00;101620.06;1036282;28;20049;-45
2023/07/14 00:43:57;;;;;;;9.63;8.18;;;;;;;14.38;100.00;101623.19;1040005;28;20033;-47
2023/07/14 00:45:24;;;;;;;13.45;9.43;;;;;;;14.48;100.00;101623.53;1039814;28;20512;-41
2023/07/14 00:46:40;;;;;;;12.43;7.53;;;;;;;14.30;100.00;101620.81;1030664;28;20054;-42
2023/07/14 00:47:36;;;;;;;15.50;9.20;;;;;;;14.10;100.00;101620.19;1033014;28;20599;-41
2023/07/14 00:48:11;;;;;;;8.02;7.20;;;;;;;14.21;100.00;101622.94;1038450;28;20109;-41
2023/07/14 00:48:43;;;;;;;10.00;7.45;;;;;;;14.24;100.00;101621.69;1030985;28;21405;-41
2023/07/14 00:49:25;;;;;;;13.00;7.70;;;;;;;14.25;100.00;101617.16;1036456;28;20500;-44
2023/07/14 00:50:29;;;;;;;9.32;7.63;;;;;;;14.30;100.00;101620.81;1036591;28;20116;-42
2023/07/14 00:51:56;;;;;;;12.18;8.55;;;;;;;14.38;100.00;101623.19;1047802;28;21518;-41
2023/07/14 00:53:23;;;;;;;8.45;7.57;;;;;;;14.30;100.00;101610.09;1047391;28;20060;-41
2023/07/14 00:54:09;;;;;;;9.98;8.98;;;;;;;14.33;100.00;101611.50;1023718;28;20191;-47
2023/07/14 00:55:38;;;;;;;9.52;8.55;;;;;;;14.39;100.00;101616.81;1038531;28;20176;-49
2023/07/14 00:57:20;;;;;;;11.68;8.25;;;;;;;14.50;100.00;101621.44;1042830;28;20049;-42
2023/07/14 00:58:49;;;;;;;9.80;8.43;;;;;;;14.23;100.00;101614.69;1024442;28;20050;-43
2023/07/14 01:00:00;;;;;;;8.13;7.32;;;;;;;14.36;100.00;101609.19;1021105;29;20043;-48
2023/07/14 01:01:15;;;;;;;7.78;6.97;;;;;;;14.42;100.00;101608.31;1039540;28;20049;-49
2023/07/14 01:02:16;;;;;;;7.82;6.97;;;;;;;14.65;100.00;101618.41;1035381;28;20050;-41
2023/07/14 01:02:56;;;;;;;11.95;7.38;;;;;;;14.43;100.00;101604.63;1039084;28;20088;-41
2023/07/14 01:03:28;;;;;;;9.07;7.40;;;;;;;14.56;100.00;101610.91;1042907;28;20042;-41
2023/07/14 01:04:00;;;;;;;10.23;7.65;;;;;;;14.64;100.00;101610.59;1047404;28;20116;-41
2023/07/14 01:05:05;;;;;;;8.98;7.85;;;;;;;14.74;100.00;101613.53;1047633;28;20052;-41
2023/07/14 01:05:42;;;;;;;9.93;7.95;;;;;;;14.58;100.00;101622.22;1036390;28;20527;-40
2023/07/14 01:06:32;;;;;;;10.45;8.15;;;;;;;14.59;100.00;101611.25;1035512;28;20074;-50
2023/07/14 01:08:07;;;;;;;13.88;9.75;;;;;;;14.72;100.00;101616.44;1042725;28;20056;-41
2023/07/14 01:09:17;;;;;;;11.95;7.50;;;;;;;14.78;100.00;101617.41;1038640;28;20053;-47
2023/07/14 01:10:37;;;;;;;9.68;7.95;;;;;;;14.94;100.00;101614.13;1041869;28;20085;-48
2023/07/14 01:11:33;;;;;;;12.65;9.25;;;;;;;14.82;100.00;101615.94;1034448;28;20066;-43
2023/07/14 01:12:51;;;;;;;10.38;8.05;;;;;;;14.72;100.00;101616.44;1036346;28;20053;-44
2023/07/14 01:13:57;;;;;;;9.38;7.22;;;;;;;14.92;100.00;101612.72;1042237;28;20056;-45
2023/07/14 01:14:57;;;;;;;10.77;9.02;;;;;;;14.93;100.00;101615.19;1037861;28;20501;-50
2023/07/14 01:16:10;;;;;;;10.73;9.63;;;;;;;14.80;100.00;101610.00;1029234;28;20077;-42
2023/07/14 01:17:01;;;;;;;11.57;9.05;;;;;;;14.84;100.00;101608.50;1036035;28;20046;-47
2023/07/14 01:17:35;;;;;;;10.93;8.68;;;;;;;14.95;100.00;101607.72;1039430;28;20048;-47
2023/07/14 01:18:08;;;;;;;11.38;9.55;;;;;;;14.88;100.00;101607.00;1042613;28;20053;-48
2023/07/14 01:18:41;;;;;;;11.82;9.10;;;;;;;14.79;100.00;101613.69;1042893;28;20541;-47
2023/07/14 01:19:41;;;;;;;13.57;8.25;;;;;;;14.83;100.00;101606.84;1042164;28;20056;-41
2023/07/14 01:20:14;;;;;;;10.98;9.15;;;;;;;14.90;100.00;101599.53;1039891;28;20045;-47
2023/07/14 01:20:54;;;;;;;14.38;8.88;;;;;;;14.93;100.00;101604.44;1040510;28;20045;-41
2023/07/14 01:21:26;;;;;;;12.48;9.93;;;;;;;14.81;100.00;101604.41;1043491;28;20504;-41
2023/07/14 01:22:21;;;;;;;11.52;9.48;;;;;;;14.90;100.00;101602.22;1043454;28;20052;-41
2023/07/14 01:23:12;;;;;;;15.02;9.50;;;;;;;14.84;100.00;101600.44;1038399;28;20068;-41
2023/07/14 01:23:52;;;;;;;9.55;8.55;;;;;;;14.83;100.00;101604.16;1039151;28;20049;-41
2023/07/14 01:24:34;;;;;;;12.10;9.25;;;;;;;14.86;100.00;101600.22;1032302;28;20492;-41
2023/07/14 01:25:40;;;;;;;11.00;9.90;;;;;;;15.04;100.00;101603.66;1035611;28;20038;-41
2023/07/14 01:26:43;;;;;;;9.77;8.73;;;;;;;15.12;100.00;101610.59;1037444;28;20515;-41
2023/07/14 01:27:16;;;;;;;11.60;8.90;;;;;;;15.17;100.00;101602.69;1038978;28;20506;-41
2023/07/14 01:27:48;;;;;;;9.75;8.40;;;;;;;15.19;100.00;101614.00;1039419;28;20072;-41
2023/07/14 01:28:20;;;;;;;11.45;8.80;;;;;;;15.17;100.00;101610.72;1035159;28;20136;-41
2023/07/14 01:28:52;;;;;;;14.30;9.13;;;;;;;15.13;100.00;101610.38;1034911;28;20050;-41
2023/07/14 01:29:24;;;;;;;12.07;10.02;;;;;;;15.07;100.00;101611.28;1039450;28;20127;-47
2023/07/14 01:29:56;;;;;;;10.90;8.75;;;;;;;15.05;100.00;101613.34;1038722;28;20045;-48
2023/07/14 01:30:28;;;;;;;12.48;8.75;;;;;;;15.16;100.00;101609.09;1038617;28;20073;-48
2023/07/14 01:30:59;;;;;;;11.80;10.25;;;;;;;15.19;100.00;101613.19;1039444;28;20437;-48
2023/07/14 01:31:32;;;;;;;11.38;9.25;;;;;;;15.17;100.00;101615.28;1039563;28;20057;-48
2023/07/14 01:32:17;;;;;;;14.10;10.55;;;;;;;15.20;100.00;101606.78;1039275;28;20516;-47
2023/07/14 01:32:50;;;;;;;12.02;9.35;;;;;;;15.22;100.00;101618.09;1035022;28;20421;-47
2023/07/14 01:33:22;;;;;;;10.93;9.77;;;;;;;15.26;100.00;101605.84;1031268;28;20660;-47
2023/07/14 01:33:54;;;;;;;13.50;8.95;;;;;;;15.19;100.00;101610.50;1031114;28;20541;-48
2023/07/14 01:34:28;;;;;;;15.50;9.75;;;;;;;15.09;100.00;101609.19;1032639;28;20137;-47
2023/07/14 01:34:59;;;;;;;9.57;8.60;;;;;;;15.11;100.00;101607.09;1039681;28;20060;-47
2023/07/14 01:35:33;;;;;;;14.15;9.93;;;;;;;14.95;100.00;101606.91;1044365;28;20512;-48
2023/07/14 01:36:06;;;;;;;11.15;8.82;;;;;;;14.90;100.00;101604.06;1043452;28;20091;-48
2023/07/14 01:36:40;;;;;;;11.10;9.95;;;;;;;14.93;100.00;101600.94;1042800;28;20051;-49
2023/07/14 01:37:15;;;;;;;12.68;9.35;;;;;;;14.94;100.00;101606.06;1040278;28;20177;-41
2023/07/14 01:37:46;;;;;;;11.57;9.75;;;;;;;14.89;100.00;101597.91;1035142;28;20116;-41
2023/07/14 01:38:19;;;;;;;10.45;9.00;;;;;;;15.00;100.00;101605.16;1035325;28;20048;-41
2023/07/14 01:38:51;;;;;;;10.45;9.35;;;;;;;14.83;100.00;101601.50;1036457;28;20057;-41
2023/07/14 01:39:23;;;;;;;10.23;9.23;;;;;;;14.85;100.00;101602.09;1040211;28;20044;-47
2023/07/14 01:39:55;;;;;;;13.75;8.50;;;;;;;14.80;100.00;101599.25;1043340;28;20045;-47
2023/07/14 01:40:27;;;;;;;22.70;9.55;;;;;;;14.70;100.00;101604.31;1039814;28;20047;-47
2023/07/14 01:40:59;;;;;;;11.25;9.27;;;;;;;14.67;100.00;101602.09;1039287;28;20107;-48
2023/07/14 01:41:32;;;;;;;11.32;7.97;;;;;;;14.77;100.00;101599.69;1040790;28;20037;-48
2023/07/14 01:42:04;;;;;;;8.88;7.78;;;;;;;14.92;100.00;101596.63;1044438;28;20041;-48
2023/07/14 01:42:36;;;;;;;21.23;8.95;;;;;;;14.93;100.00;101593.72;1048463;28;20106;-47
2023/07/14 01:43:09;;;;;;;13.93;9.52;;;;;;;14.82;100.00;101591.81;1047652;28;20041;-47
2023/07/14 01:43:42;;;;;;;9.98;8.65;;;;;;;14.65;100.00;101596.94;1039288;28;20053;-47
2023/07/14 01:44:17;;;;;;;9.50;8.10;;;;;;;14.45;100.00;101597.16;1034398;28;20049;-48
2023/07/14 01:44:49;;;;;;;8.48;7.68;;;;;;;14.33;100.00;101588.22;1035258;28;20097;-47
2023/07/14 01:45:22;;;;;;;9.57;8.02;;;;;;;14.39;100.00;101597.22;1033466;28;20111;-49
2023/07/14 01:45:57;;;;;;;8.70;7.65;;;;;;;14.45;100.00;101586.44;1042231;28;20460;-48
2023/07/14 01:46:29;;;;;;;10.50;8.27;;;;;;;14.45;100.00;101591.81;1043063;28;20044;-47
2023/07/14 01:47:02;;;;;;;9.98;8.48;;;;;;;14.57;100.00;101593.75;1044653;28;21269;-42
2023/07/14 01:47:36;;;;;;;9.13;8.23;;;;;;;14.51;100.00;101596.28;1043612;28;20040;-41
2023/07/14 01:48:11;;;;;;;10.55;8.27;;;;;;;14.50;100.00;101596.50;1040344;28;20037;-41
2023/07/14 01:48:58;;;;;;;11.15;7.65;;;;;;;14.57;100.00;101593.75;1047190;28;20040;-41
2023/07/14 01:49:38;;;;;;;9.75;8.85;;;;;;;14.61;100.00;101595.75;1047000;28;20049;-41
2023/07/14 01:50:33;;;;;;;10.20;8.50;;;;;;;14.63;100.00;101595.53;1047282;28;20410;-41
2023/07/14 01:51:09;;;;;;;9.98;8.20;;;;;;;14.62;100.00;101592.03;1041675;28;20077;-41
2023/07/14 01:51:43;;;;;;;11.68;9.20;;;;;;;14.55;100.00;101590.50;1045370;28;20067;-41
2023/07/14 01:52:20;;;;;;;10.52;8.75;;;;;;;14.59;100.00;101597.84;1043297;28;20040;-41
2023/07/14 01:52:54;;;;;;;8.80;7.88;;;;;;;14.24;100.00;101589.53;1039284;28;20096;-41
2023/07/14 01:53:34;;;;;;;10.27;9.27;;;;;;;14.11;100.00;101595.03;1042996;28;20037;-41
2023/07/14 01:54:15;;;;;;;8.40;7.60;;;;;;;13.91;100.00;101593.34;1046355;28;20041;-41
2023/07/14 01:54:54;;;;;;;9.70;8.02;;;;;;;13.89;100.00;101592.75;1046253;28;20045;-41
2023/07/14 01:55:31;;;;;;;11.48;8.40;;;;;;;13.98;100.00;101589.81;1043281;28;20045;-41
2023/07/14 01:56:06;;;;;;;8.98;8.18;;;;;;;13.96;100.00;101595.34;1035437;28;20038;-41
2023/07/14 01:56:39;;;;;;;8.43;7.45;;;;;;;13.88;100.00;101591.09;1040322;28;20660;-41
2023/07/14 01:57:13;;;;;;;10.10;7.70;;;;;;;13.88;100.00;101590.28;1043433;28;20082;-41
2023/07/14 01:57:46;;;;;;;9.13;7.15;;;;;;;13.92;100.00;101591.47;1045696;28;20179;-41
2023/07/14 01:58:22;;;;;;;9.45;7.85;;;;;;;13.74;100.00;101603.00;1045270;28;20029;-41
2023/07/14 01:59:00;;;;;;;13.98;7.70;;;;;;;13.74;100.00;101594.13;1047766;28;20052;-41
2023/07/14 01:59:34;;;;;;;9.65;7.72;;;;;;;13.68;100.00;101595.81;1045257;28;20045;-41
2023/07/14 02:00:11;;;;;;;8.13;7.32;;;;;;;13.70;100.00;101595.63;1045452;28;20094;-41
2023/07/14 02:00:47;;;;;;;12.05;7.22;;;;;;;13.69;100.00;101597.44;1043738;28;20531;-41
2023/07/14 02:01:19;;;;;;;10.45;7.07;;;;;;;13.73;100.00;101598.66;1041943;28;20048;-42
2023/07/14 02:01:52;;;;;;;9.23;7.28;;;;;;;13.78;100.00;101596.16;1045190;28;20076;-47
2023/07/14 02:02:30;;;;;;;9.85;7.32;;;;;;;13.85;100.00;101594.22;1049478;28;20051;-47
2023/07/14 02:03:04;;;;;;;10.68;7.65;;;;;;;13.85;100.00;101598.75;1047388;28;20039;-50
2023/07/14 02:03:46;;;;;;;9.18;8.13;;;;;;;13.98;100.00;101589.81;1047712;28;20407;-47
2023/07/14 02:04:23;;;;;;;10.57;7.53;;;;;;;13.92;100.00;101596.84;1046587;28;20580;-47
2023/07/14 02:04:55;;;;;;;8.35;7.15;;;;;;;13.89;100.00;101598.09;1046500;28;20494;-48
2023/07/14 02:05:31;;;;;;;7.70;7.03;;;;;;;13.78;100.00;101601.50;1047540;28;20037;-47
2023/07/14 02:06:04;;;;;;;6.95;6.20;;;;;;;13.58;100.00;101601.66;1049592;28;20040;-47
2023/07/14 02:06:35;;;;;;;8.13;7.32;;;;;;;13.43;100.00;101589.63;1048962;28;20153;-48
2023/07/14 02:07:12;;;;;;;8.25;7.45;;;;;;;13.61;100.00;101598.53;1051825;28;20441;-47
2023/07/14 02:07:46;;;;;;;8.02;6.95;;;;;;;13.66;100.00;101589.84;1047470;28;20043;-41
2023/07/14 02:08:23;;;;;;;8.90;7.60;;;;;;;13.79;100.00;101588.94;1047497;28;20037;-41
2023/07/14 02:08:55;;;;;;;7.47;6.65;;;;;;;13.74;100.00;101589.59;1047703;28;20049;-41
2023/07/14 02:09:28;;;;;;;7.57;6.80;;;;;;;13.79;100.00;101595.13;1044950;28;20048;-41
2023/07/14 02:10:00;;;;;;;9.25;7.95;;;;;;;13.74;100.00;101592.28;1049499;28;20045;-41
2023/07/14 02:10:32;;;;;;;9.95;8.25;;;;;;;13.72;100.00;101597.03;1047000;28;20135;-49
2023/07/14 02:11:04;;;;;;;8.30;7.38;;;;;;;13.82;100.00;101592.00;1043753;28;20539;-47
2023/07/14 02:11:36;;;;;;;9.73;7.00;;;;;;;13.72;100.00;101596.22;1047677;28;20111;-48
2023/07/14 02:12:28;;;;;;;8.10;6.75;;;;;;;13.72;100.00;101597.03;1043870;28;20041;-47
2023/07/14 02:13:01;;;;;;;8.68;7.55;;;;;;;13.80;100.00;101599.44;1051552;28;20538;-41
2023/07/14 02:13:33;;;;;;;8.05;6.93;;;;;;;13.79;100.00;101587.06;1051568;28;20068;-41
2023/07/14 02:14:05;;;;;;;7.70;7.00;;;;;;;13.71;100.00;101595.41;1051079;28;20048;-41
2023/07/14 02:15:02;;;;;;;7.03;6.40;;;;;;;13.72;100.00;101591.69;1052687;28;20038;-42
2023/07/14 02:15:34;;;;;;;10.93;7.35;;;;;;;13.81;100.00;101597.56;1047343;28;20048;-47
2023/07/14 02:16:09;;;;;;;8.93;7.28;;;;;;;13.68;100.00;101594.97;1043516;28;20052;-47
2023/07/14 02:16:42;;;;;;;9.02;7.85;;;;;;;13.65;100.00;101590.88;1039270;28;20131;-48
2023/07/14 02:17:26;;;;;;;10.85;7.15;;;;;;;13.71;100.00;101595.41;1039364;28;20133;-49
2023/07/14 02:17:59;;;;;;;9.15;8.20;;;;;;;13.76;100.00;101590.19;1038083;28;20065;-41
2023/07/14 02:18:32;;;;;;;11.52;8.00;;;;;;;13.77;100.00;101589.16;1043997;28;20049;-41
2023/07/14 02:19:04;;;;;;;9.77;8.35;;;;;;;13.92;100.00;101586.13;1039370;28;20420;-41
2023/07/14 02:19:36;;;;;;;7.90;7.10;;;;;;;13.93;100.00;101593.13;1040040;28;20068;-41
2023/07/14 02:20:15;;;;;;;8.88;7.35;;;;;;;13.86;100.00;101593.19;1041692;28;20038;-41
2023/07/14 02:20:48;;;;;;;9.30;8.20;;;;;;;13.81;100.00;101586.84;1045402;28;20120;-44
2023/07/14 02:21:27;;;;;;;8.90;7.60;;;;;;;13.86;100.00;101587.84;1048346;28;20125;-47
2023/07/14 02:21:59;;;;;;;8.15;7.35;;;;;;;13.77;100.00;101591.84;1050337;28;20036;-47
2023/07/14 02:22:33;;;;;;;9.43;7.53;;;;;;;13.68;100.00;101586.94;1053911;28;20040;-48
2023/07/14 02:23:06;;;;;;;9.52;7.88;;;;;;;13.65;100.00;101580.19;1056812;28;20039;-42
2023/07/14 02:23:39;;;;;;;9.00;8.07;;;;;;;13.80;100.00;101588.72;1052377;28;20032;-41
2023/07/14 02:24:20;;;;;;;8.40;7.53;;;;;;;13.84;100.00;101589.91;1047600;28;20098;-41
2023/07/14 02:24:53;;;;;;;7.75;6.82;;;;;;;13.78;100.00;101587.31;1043693;28;20091;-41
2023/07/14 02:25:27;;;;;;;8.52;7.68;;;;;;;13.90;100.00;101582.84;1043379;28;20065;-41
2023/07/14 02:26:21;;;;;;;8.73;7.20;;;;;;;13.90;100.00;101593.56;1041605;28;20477;-41
2023/07/14 02:26:59;;;;;;;14.00;7.28;;;;;;;13.79;100.00;101579.03;1047672;28;20040;-41
2023/07/14 02:27:30;;;;;;;9.18;7.38;;;;;;;13.88;100.00;101588.44;1050285;28;20036;-45
2023/07/14 02:28:02;;;;;;;15.68;7.85;;;;;;;13.86;100.00;101582.47;1056053;28;20112;-47
2023/07/14 02:28:34;;;;;;;7.72;6.93;;;;;;;13.78;100.00;101574.72;1056255;28;20093;-49
2023/07/14 02:29:11;;;;;;;8.52;7.72;;;;;;;13.74;100.00;101576.22;1051771;28;20499;-47
2023/07/14 02:29:43;;;;;;;11.38;7.68;;;;;;;13.70;100.00;101583.03;1051562;28;20058;-47
2023/07/14 02:30:20;;;;;;;8.05;7.25;;;;;;;13.71;100.00;101576.66;1051701;28;20132;-47
2023/07/14 02:30:58;;;;;;;8.07;6.65;;;;;;;13.85;100.00;101580.84;1051563;28;20036;-48
2023/07/14 02:31:35;;;;;;;11.48;7.88;;;;;;;13.76;100.00;101584.84;1051233;28;20495;-48
2023/07/14 02:32:21;;;;;;;10.35;8.02;;;;;;;13.78;100.00;101584.63;1054713;28;20395;-47
2023/07/14 02:32:59;;;;;;;10.70;7.35;;;;;;;13.61;100.00;101585.16;1055987;28;20075;-48
2023/07/14 02:33:35;;;;;;;7.07;6.38;;;;;;;13.65;100.00;101580.19;1047985;28;20055;-47
2023/07/14 02:34:10;;;;;;;11.70;7.13;;;;;;;13.75;100.00;101583.19;1044268;28;20143;-42
2023/07/14 02:34:51;;;;;;;11.05;7.85;;;;;;;13.87;100.00;101581.44;1043851;28;20045;-41
2023/07/14 02:35:42;;;;;;;;;;;;;;;13.97;100.00;101582.78;1045601;28;20127;-41
2023/07/14 02:36:21;;;;;;;7.90;7.10;;;;;;;14.07;100.00;101583.94;1051439;28;20307;-49
2023/07/14 02:36:58;;;;;;;7.53;6.82;;;;;;;14.07;100.00;101575.09;1051822;28;20149;-47
2023/07/14 02:37:51;;;;;;;8.73;7.18;;;;;;;14.14;100.00;101578.50;1056816;28;20035;-47
2023/07/14 02:38:24;;;;;;;11.05;8.25;;;;;;;14.04;100.00;101579.03;1056883;28;20088;-48
2023/07/14 02:38:56;;;;;;;8.85;7.97;;;;;;;14.00;100.00;101572.47;1057685;28;20503;-41
2023/07/14 02:39:36;;;;;;;10.68;7.75;;;;;;;13.84;100.00;101578.38;1056148;28;20039;-41
2023/07/14 02:40:09;;;;;;;7.97;7.18;;;;;;;13.92;100.00;101568.19;1050517;28;20058;-41
2023/07/14 02:40:55;;;;;;;9.68;8.68;;;;;;;13.64;100.00;101562.47;1048103;28;20051;-41
2023/07/14 02:41:39;;;;;;;8.40;7.28;;;;;;;13.59;100.00;101565.81;1046955;28;20174;-48
2023/07/14 02:42:11;;;;;;;10.60;6.90;;;;;;;13.80;100.00;101571.84;1048365;28;20131;-47
2023/07/14 02:42:43;;;;;;;7.38;6.60;;;;;;;13.81;100.00;101568.94;1044139;28;20049;-49
2023/07/14 02:43:17;;;;;;;7.70;6.82;;;;;;;13.72;100.00;101570.25;1040063;28;20510;-48
2023/07/14 02:43:53;;;;;;;7.78;6.85;;;;;;;13.58;100.00;101564.19;1039861;28;20056;-45
2023/07/14 02:44:30;;;;;;;8.90;8.00;;;;;;;13.50;100.00;101567.13;1037455;28;20081;-47
2023/07/14 02:45:01;;;;;;;9.20;7.75;;;;;;;13.39;100.00;101564.31;1040042;28;20555;-47
2023/07/14 02:45:37;;;;;;;11.43;7.43;;;;;;;13.52;100.00;101561.56;1041995;28;20038;-47
2023/07/14 02:46:18;;;;;;;7.47;6.70;;;;;;;13.69;100.00;101565.31;1043665;28;20060;-41
2023/07/14 02:47:01;;;;;;;7.85;7.07;;;;;;;13.35;100.00;101563.13;1043678;28;20065;-41
2023/07/14 02:47:36;;;;;;;12.13;7.70;;;;;;;13.43;100.00;101565.56;1039775;28;20109;-41
2023/07/14 02:48:14;;;;;;;9.18;6.68;;;;;;;13.47;100.00;101564.06;1046042;28;20511;-41
2023/07/14 02:48:48;;;;;;;9.48;7.75;;;;;;;13.37;100.00;101566.41;1044353;28;20045;-41
2023/07/14 02:49:20;;;;;;;8.93;8.13;;;;;;;13.31;100.00;101557.38;1046723;28;20048;-41
2023/07/14 02:49:52;;;;;;;9.25;6.97;;;;;;;13.40;100.00;101555.25;1048370;28;20124;-41
2023/07/14 02:50:24;;;;;;;9.10;7.43;;;;;;;13.45;100.00;101564.28;1051031;28;20040;-41
2023/07/14 02:50:57;;;;;;;10.13;7.72;;;;;;;13.52;100.00;101559.69;1044045;28;20435;-41
2023/07/14 02:51:28;;;;;;;7.97;7.13;;;;;;;13.58;100.00;101563.34;1044021;28;20550;-47
2023/07/14 02:52:00;;;;;;;12.68;7.50;;;;;;;13.64;100.00;101562.47;1045123;28;20064;-47
2023/07/14 02:52:32;;;;;;;9.13;7.85;;;;;;;13.72;100.00;101562.22;1044778;28;20045;-47
2023/07/14 02:53:04;;;;;;;9.18;7.20;;;;;;;13.75;100.00;101559.09;1048224;28;20036;-49
2023/07/14 02:53:36;;;;;;;9.77;7.88;;;;;;;13.73;100.00;101561.19;1048921;28;20516;-48
2023/07/14 02:54:08;;;;;;;13.77;7.45;;;;;;;13.78;100.00;101558.66;1049405;28;20129;-41
2023/07/14 02:54:40;;;;;;;12.30;7.72;;;;;;;13.78;100.00;101565.88;1048341;28;20052;-41
2023/07/14 02:55:12;;;;;;;9.27;8.20;;;;;;;13.61;100.00;101568.28;1048414;28;20117;-41
2023/07/14 02:55:44;;;;;;;12.82;7.43;;;;;;;13.43;100.00;101557.53;1044199;28;20053;-41
2023/07/14 02:56:15;;;;;;;12.35;6.97;;;;;;;13.45;100.00;101556.25;1043803;28;20053;-41
2023/07/14 02:56:47;;;;;;;10.65;7.80;;;;;;;13.66;100.00;101565.75;1044162;28;20106;-41
2023/07/14 02:57:19;;;;;;;7.80;6.72;;;;;;;13.65;100.00;101569.47;1045585;28;20036;-42
2023/07/14 02:57:51;;;;;;;7.82;6.57;;;;;;;13.69;100.00;101565.31;1048541;28;20068;-48
2023/07/14 02:58:23;;;;;;;9.80;6.85;;;;;;;13.80;100.00;101563.78;1048428;28;20044;-48
2023/07/14 02:58:55;;;;;;;10.75;7.50;;;;;;;13.82;100.00;101565.22;1048371;28;20041;-47
2023/07/14 02:59:27;;;;;;;12.15;8.60;;;;;;;13.88;100.00;101558.16;1044102;28;20144;-47
2023/07/14 02:59:58;;;;;;;8.68;7.78;;;;;;;13.92;100.00;101565.53;1044040;28;20037;-47
2023/07/14 03:00:30;;;;;;;13.15;7.47;;;;;;;13.94;100.00;101557.25;1044027;28;20048;-47
2023/07/14 03:01:04;;;;;;;10.35;8.25;;;;;;;13.92;100.00;101557.50;1046362;28;20049;-47
2023/07/14 03:01:36;;;;;;;8.70;7.20;;;;;;;13.89;100.00;101557.13;1052836;28;20036;-48
2023/07/14 03:02:08;;;;;;;8.70;7.90;;;;;;;13.90;100.00;101559.56;1047828;28;20422;-47
2023/07/14 03:02:40;;;;;;;9.63;8.18;;;;;;;13.96;100.00;101559.72;1048055;28;20043;-47
2023/07/14 03:03:12;;;;;;;11.25;8.93;;;;;;;13.98;100.00;101557.66;1048294;28;20057;-47
2023/07/14 03:03:45;;;;;;;10.23;8.25;;;;;;;13.96;100.00;101554.38;1048200;28;20040;-48
2023/07/14 03:04:17;;;;;;;11.02;7.93;;;;;;;14.04;100.00;101559.47;1048731;28;20044;-48
2023/07/14 03:04:49;;;;;;;8.00;7.30;;;;;;;14.02;100.00;101554.31;1048156;28;20044;-47
2023/07/14 03:05:21;;;;;;;9.48;7.45;;;;;;;14.07;100.00;101556.34;1048208;28;20121;-48
2023/07/14 03:05:53;;;;;;;17.38;8.63;;;;;;;14.07;100.00;101551.78;1048038;28;20060;-48
2023/07/14 03:06:25;;;;;;;10.32;8.45;;;;;;;14.12;100.00;101559.16;1048197;28;20491;-47
2023/07/14 03:06:57;;;;;;;13.48;8.32;;;;;;;14.14;100.00;101559.75;1048109;28;20528;-41
2023/07/14 03:07:32;;;;;;;11.15;8.18;;;;;;;14.17;100.00;101551.28;1048236;28;20098;-41
2023/07/14 03:08:07;;;;;;;10.90;8.75;;;;;;;14.21;100.00;101561.31;1049209;28;20044;-41
2023/07/14 03:08:39;;;;;;;10.98;8.63;;;;;;;14.19;100.00;101550.00;1052453;28;20051;-41
2023/07/14 03:09:11;;;;;;;12.73;8.82;;;;;;;14.16;100.00;101547.78;1052713;28;20048;-48
2023/07/14 03:09:42;;;;;;;9.57;8.30;;;;;;;14.13;100.00;101550.91;1052314;28;20032;-47
2023/07/14 03:10:14;;;;;;;11.23;9.07;;;;;;;14.13;100.00;101545.53;1052255;28;20036;-50
2023/07/14 03:10:48;;;;;;;11.00;9.10;;;;;;;14.16;100.00;101538.91;1052736;28;20453;-47
2023/07/14 03:11:20;;;;;;;11.60;9.00;;;;;;;14.16;100.00;101549.63;1048186;28;20127;-47
2023/07/14 03:11:52;;;;;;;10.88;8.68;;;;;;;13.84;100.00;101540.88;1048128;28;20067;-41
2023/07/14 03:12:24;;;;;;;13.40;8.55;;;;;;;13.90;100.00;101548.84;1047962;28;20131;-50
2023/07/14 03:12:55;;;;;;;9.43;7.57;;;;;;;13.99;100.00;101543.22;1044621;28;20048;-47
2023/07/14 03:13:27;;;;;;;8.95;7.75;;;;;;;13.90;100.00;101540.81;1047834;28;20396;-47
2023/07/14 03:13:59;;;;;;;10.35;8.35;;;;;;;13.93;100.00;101547.59;1048085;28;20041;-48
2023/07/14 03:14:31;;;;;;;11.95;9.32;;;;;;;13.98;100.00;101547.78;1048879;28;20118;-49
2023/07/14 03:15:05;;;;;;;12.48;8.77;;;;;;;13.91;100.00;101547.00;1052326;28;20090;-47
2023/07/14 03:15:36;;;;;;;9.43;8.32;;;;;;;13.97;100.00;101539.94;1052625;28;20047;-47
2023/07/14 03:16:08;;;;;;;11.25;8.55;;;;;;;13.80;100.00;101542.38;1052717;28;20116;-48